Palos Verdes Estates, CA (90274)

6:48 PM PDT on October 31, 2014 (GMT -0700)
Hawthorne & Silver Spur | Change Station
CLOSE
Current Station
Personal Weather Station
Location: Rancho Palos Verdes, CA
Elevation: 1000 ft
Nearby Weather Stations
Active Advisory: Special Statement

Elev 1000 ft 33.78 °N, 118.37 °W | Updated 0 second ago

Overcast
Overcast
62.1 °F
Feels Like 62.1 °F
N
10.4
Wind Variable Wind from WSW
Gusts 10.4 mph

Today
High -- | Low -- °F
--% Chance of Precip.
Yesterday
High -- | Low -- °F
Precip. -- in
7:11 AM 6:01 PM
First Quarter, 61% visible
Pressure 29.87 in
Visibility 20.0 miles
Clouds Scattered Clouds 2500 ft
Overcast 4000 ft
Dew Point 56 °F
Humidity 79%
Rainfall 0.00 in
Snow Depth Not available.
UV 0 out of 12
Pollen 3.10 out of 12
Air Quality Not available.
Flu Activity Not available.
METAR KTOA 010047Z VRB06KT 20SM SCT025 OVC040 20/15 A2987

More Conditions Fewer Conditions

Pressure 29.87 in
Visibility 20.0 miles
Clouds Scattered Clouds 2500 ft
Overcast 4000 ft
Dew Point 56 °F
Humidity 79%
Rainfall 0.00 in
Snow Depth Not available.
UV 0 out of 12
Pollen 3.10 out of 12
Air Quality Not available.
Flu Activity Not available.
METAR KTOA 010047Z VRB06KT 20SM SCT025 OVC040 20/15 A2987

More Conditions Fewer Conditions

10-Day Weather Forecast

Almanac

Astronomy

Oct. 31, 2014 Rise Set
Actual Time
Civil Twilight
Nautical Twilight
Astronomical Twilight
Moon
Length of Visible Light
Length of Day
Tomorrow will be .
, % of the Moon is Illuminated

Today's Extremes

State Highs State Lows

Community

WunderPhotos

Upload Photos

1,766,810 photos uploaded!

WunderBlogs® & News

Nearby

Air Quality

  Air Quality AQ Index Pollutant
Not available.

Snow Depth

Station Depth Elevation

Earthquake Activity

City Distance Mag. Time & Date
Minimum magnitude displayed is 2.5.

Coastal Water Temperatures

Place Temperature

Nearby Weather Stations